sensor_id;sensor_type;location;lat;lon;timestamp;P1;durP1;ratioP1;P2;durP2;ratioP2
80340;SDS011;69656;44.498;0.166;2023-08-21T00:04:30;3.40;;;1.60;;
80340;SDS011;69656;44.498;0.166;2023-08-21T00:10:04;7.10;;;1.60;;
80340;SDS011;69656;44.498;0.166;2023-08-21T00:15:37;3.80;;;1.50;;
80340;SDS011;69656;44.498;0.166;2023-08-21T00:21:07;3.50;;;1.90;;
80340;SDS011;69656;44.498;0.166;2023-08-21T00:26:41;2.87;;;1.30;;
80340;SDS011;69656;44.498;0.166;2023-08-21T00:32:14;4.80;;;1.80;;
80340;SDS011;69656;44.498;0.166;2023-08-21T00:37:46;3.43;;;1.57;;
80340;SDS011;69656;44.498;0.166;2023-08-21T00:43:18;1.37;;;1.00;;
80340;SDS011;69656;44.498;0.166;2023-08-21T00:48:51;5.87;;;1.40;;
80340;SDS011;69656;44.498;0.166;2023-08-21T00:54:24;4.53;;;1.90;;
80340;SDS011;69656;44.498;0.166;2023-08-21T00:59:59;6.80;;;1.67;;
80340;SDS011;69656;44.498;0.166;2023-08-21T01:05:30;5.33;;;1.73;;
80340;SDS011;69656;44.498;0.166;2023-08-21T01:11:06;7.03;;;1.67;;
80340;SDS011;69656;44.498;0.166;2023-08-21T01:16:36;2.00;;;1.50;;
80340;SDS011;69656;44.498;0.166;2023-08-21T01:22:08;2.97;;;1.50;;
80340;SDS011;69656;44.498;0.166;2023-08-21T01:27:42;6.73;;;1.60;;
80340;SDS011;69656;44.498;0.166;2023-08-21T01:33:13;4.63;;;1.80;;
80340;SDS011;69656;44.498;0.166;2023-08-21T01:38:46;5.33;;;2.07;;
80340;SDS011;69656;44.498;0.166;2023-08-21T01:44:19;3.97;;;1.50;;
80340;SDS011;69656;44.498;0.166;2023-08-21T01:49:52;6.73;;;1.87;;
80340;SDS011;69656;44.498;0.166;2023-08-21T01:55:26;10.30;;;2.50;;
80340;SDS011;69656;44.498;0.166;2023-08-21T02:00:59;5.60;;;2.13;;
80340;SDS011;69656;44.498;0.166;2023-08-21T02:06:31;2.87;;;2.20;;
80340;SDS011;69656;44.498;0.166;2023-08-21T02:12:05;5.40;;;2.23;;
80340;SDS011;69656;44.498;0.166;2023-08-21T02:17:37;15.37;;;2.47;;
80340;SDS011;69656;44.498;0.166;2023-08-21T02:23:09;8.83;;;3.10;;
80340;SDS011;69656;44.498;0.166;2023-08-21T02:28:42;7.93;;;2.77;;
80340;SDS011;69656;44.498;0.166;2023-08-21T02:34:14;9.17;;;3.17;;
80340;SDS011;69656;44.498;0.166;2023-08-21T02:39:46;7.60;;;2.47;;
80340;SDS011;69656;44.498;0.166;2023-08-21T02:45:19;4.73;;;2.50;;
80340;SDS011;69656;44.498;0.166;2023-08-21T02:50:51;10.50;;;2.80;;
80340;SDS011;69656;44.498;0.166;2023-08-21T02:56:24;12.83;;;2.80;;
80340;SDS011;69656;44.498;0.166;2023-08-21T03:01:55;7.47;;;2.50;;
80340;SDS011;69656;44.498;0.166;2023-08-21T03:07:29;13.97;;;2.60;;
80340;SDS011;69656;44.498;0.166;2023-08-21T03:13:01;7.80;;;2.50;;
80340;SDS011;69656;44.498;0.166;2023-08-21T03:18:41;8.50;;;2.83;;
80340;SDS011;69656;44.498;0.166;2023-08-21T03:24:07;7.87;;;2.50;;
80340;SDS011;69656;44.498;0.166;2023-08-21T03:29:39;8.03;;;2.67;;
80340;SDS011;69656;44.498;0.166;2023-08-21T03:35:11;9.10;;;2.50;;
80340;SDS011;69656;44.498;0.166;2023-08-21T03:40:43;10.87;;;3.50;;
80340;SDS011;69656;44.498;0.166;2023-08-21T03:46:16;11.80;;;2.90;;
80340;SDS011;69656;44.498;0.166;2023-08-21T03:51:50;8.53;;;3.67;;
80340;SDS011;69656;44.498;0.166;2023-08-21T03:57:22;6.53;;;2.80;;
80340;SDS011;69656;44.498;0.166;2023-08-21T04:02:55;9.00;;;2.27;;
80340;SDS011;69656;44.498;0.166;2023-08-21T04:08:26;12.97;;;2.70;;
80340;SDS011;69656;44.498;0.166;2023-08-21T04:13:58;17.07;;;3.90;;
80340;SDS011;69656;44.498;0.166;2023-08-21T04:19:30;18.43;;;3.17;;
80340;SDS011;69656;44.498;0.166;2023-08-21T04:25:03;15.43;;;3.20;;
80340;SDS011;69656;44.498;0.166;2023-08-21T04:30:35;10.23;;;3.30;;
80340;SDS011;69656;44.498;0.166;2023-08-21T04:36:14;12.97;;;2.97;;
80340;SDS011;69656;44.498;0.166;2023-08-21T04:41:41;16.43;;;2.83;;
80340;SDS011;69656;44.498;0.166;2023-08-21T04:47:21;14.67;;;2.90;;
80340;SDS011;69656;44.498;0.166;2023-08-21T04:52:47;14.53;;;2.97;;
80340;SDS011;69656;44.498;0.166;2023-08-21T04:58:19;8.70;;;2.67;;
80340;SDS011;69656;44.498;0.166;2023-08-21T05:03:53;12.87;;;3.20;;
80340;SDS011;69656;44.498;0.166;2023-08-21T05:09:26;9.70;;;3.00;;
80340;SDS011;69656;44.498;0.166;2023-08-21T05:14:58;15.57;;;3.03;;
80340;SDS011;69656;44.498;0.166;2023-08-21T05:20:30;14.03;;;2.93;;
80340;SDS011;69656;44.498;0.166;2023-08-21T05:26:02;10.20;;;2.20;;
80340;SDS011;69656;44.498;0.166;2023-08-21T05:31:35;13.20;;;2.77;;
80340;SDS011;69656;44.498;0.166;2023-08-21T05:37:08;14.30;;;2.70;;
80340;SDS011;69656;44.498;0.166;2023-08-21T05:42:40;9.80;;;2.50;;
80340;SDS011;69656;44.498;0.166;2023-08-21T05:48:13;7.20;;;2.30;;
80340;SDS011;69656;44.498;0.166;2023-08-21T05:53:46;5.60;;;2.30;;
80340;SDS011;69656;44.498;0.166;2023-08-21T06:04:51;10.93;;;2.93;;
80340;SDS011;69656;44.498;0.166;2023-08-21T06:10:23;11.83;;;2.90;;
80340;SDS011;69656;44.498;0.166;2023-08-21T06:15:57;7.03;;;3.47;;
80340;SDS011;69656;44.498;0.166;2023-08-21T06:21:30;10.90;;;3.77;;
80340;SDS011;69656;44.498;0.166;2023-08-21T06:27:04;10.43;;;3.43;;
80340;SDS011;69656;44.498;0.166;2023-08-21T06:32:36;11.83;;;2.90;;
80340;SDS011;69656;44.498;0.166;2023-08-21T06:38:10;8.73;;;3.57;;
80340;SDS011;69656;44.498;0.166;2023-08-21T06:43:42;14.13;;;3.20;;
80340;SDS011;69656;44.498;0.166;2023-08-21T06:49:14;8.87;;;3.27;;
80340;SDS011;69656;44.498;0.166;2023-08-21T06:54:47;16.67;;;3.20;;
80340;SDS011;69656;44.498;0.166;2023-08-21T07:00:19;14.87;;;3.87;;
80340;SDS011;69656;44.498;0.166;2023-08-21T07:05:53;10.07;;;3.03;;
80340;SDS011;69656;44.498;0.166;2023-08-21T07:11:26;11.97;;;4.20;;
80340;SDS011;69656;44.498;0.166;2023-08-21T07:16:58;17.57;;;4.37;;
80340;SDS011;69656;44.498;0.166;2023-08-21T07:22:30;9.17;;;4.70;;
80340;SDS011;69656;44.498;0.166;2023-08-21T07:28:03;14.23;;;6.70;;
80340;SDS011;69656;44.498;0.166;2023-08-21T07:33:36;16.30;;;6.93;;
80340;SDS011;69656;44.498;0.166;2023-08-21T07:39:08;14.73;;;6.60;;
80340;SDS011;69656;44.498;0.166;2023-08-21T07:44:40;10.67;;;5.83;;
80340;SDS011;69656;44.498;0.166;2023-08-21T07:50:14;17.10;;;6.33;;
80340;SDS011;69656;44.498;0.166;2023-08-21T07:55:46;17.37;;;5.90;;
80340;SDS011;69656;44.498;0.166;2023-08-21T08:01:20;16.43;;;6.13;;
80340;SDS011;69656;44.498;0.166;2023-08-21T08:06:53;14.80;;;5.40;;
80340;SDS011;69656;44.498;0.166;2023-08-21T08:12:25;15.27;;;6.53;;
80340;SDS011;69656;44.498;0.166;2023-08-21T08:17:58;12.17;;;6.00;;
80340;SDS011;69656;44.498;0.166;2023-08-21T08:23:32;12.00;;;5.80;;
80340;SDS011;69656;44.498;0.166;2023-08-21T08:29:05;8.20;;;4.63;;
80340;SDS011;69656;44.498;0.166;2023-08-21T08:34:38;6.70;;;4.53;;
80340;SDS011;69656;44.498;0.166;2023-08-21T08:40:11;8.63;;;5.20;;
80340;SDS011;69656;44.498;0.166;2023-08-21T08:45:45;7.83;;;5.00;;
80340;SDS011;69656;44.498;0.166;2023-08-21T08:51:17;15.27;;;5.80;;
80340;SDS011;69656;44.498;0.166;2023-08-21T08:56:49;13.20;;;5.20;;
80340;SDS011;69656;44.498;0.166;2023-08-21T09:02:24;11.23;;;5.00;;
80340;SDS011;69656;44.498;0.166;2023-08-21T09:08:02;11.57;;;5.03;;
80340;SDS011;69656;44.498;0.166;2023-08-21T09:13:30;8.80;;;4.07;;
80340;SDS011;69656;44.498;0.166;2023-08-21T09:19:03;8.13;;;5.07;;
80340;SDS011;69656;44.498;0.166;2023-08-21T09:24:36;8.03;;;4.57;;
80340;SDS011;69656;44.498;0.166;2023-08-21T09:30:09;12.40;;;4.80;;
80340;SDS011;69656;44.498;0.166;2023-08-21T09:35:41;8.40;;;4.93;;
80340;SDS011;69656;44.498;0.166;2023-08-21T09:41:13;10.93;;;4.27;;
80340;SDS011;69656;44.498;0.166;2023-08-21T09:46:48;11.20;;;4.50;;
80340;SDS011;69656;44.498;0.166;2023-08-21T09:52:18;11.33;;;4.93;;
80340;SDS011;69656;44.498;0.166;2023-08-21T09:57:51;8.33;;;5.50;;
80340;SDS011;69656;44.498;0.166;2023-08-21T10:03:23;6.97;;;4.70;;
80340;SDS011;69656;44.498;0.166;2023-08-21T10:08:56;10.73;;;5.73;;
80340;SDS011;69656;44.498;0.166;2023-08-21T10:14:27;9.17;;;5.00;;
80340;SDS011;69656;44.498;0.166;2023-08-21T10:20:02;11.37;;;5.50;;
80340;SDS011;69656;44.498;0.166;2023-08-21T10:25:33;9.20;;;5.20;;
80340;SDS011;69656;44.498;0.166;2023-08-21T10:42:10;9.63;;;5.43;;
80340;SDS011;69656;44.498;0.166;2023-08-21T10:47:42;6.97;;;4.93;;
80340;SDS011;69656;44.498;0.166;2023-08-21T10:53:15;9.73;;;4.87;;
80340;SDS011;69656;44.498;0.166;2023-08-21T10:58:48;8.37;;;4.97;;
80340;SDS011;69656;44.498;0.166;2023-08-21T11:04:20;9.10;;;4.63;;
80340;SDS011;69656;44.498;0.166;2023-08-21T11:09:53;7.70;;;4.80;;
80340;SDS011;69656;44.498;0.166;2023-08-21T11:15:27;6.00;;;3.70;;
80340;SDS011;69656;44.498;0.166;2023-08-21T11:21:07;5.60;;;3.73;;
80340;SDS011;69656;44.498;0.166;2023-08-21T11:26:32;7.80;;;4.00;;
80340;SDS011;69656;44.498;0.166;2023-08-21T11:32:08;7.87;;;3.83;;
80340;SDS011;69656;44.498;0.166;2023-08-21T11:37:43;9.37;;;3.30;;
80340;SDS011;69656;44.498;0.166;2023-08-21T11:43:11;3.83;;;3.37;;
80340;SDS011;69656;44.498;0.166;2023-08-21T11:48:44;6.67;;;4.00;;
80340;SDS011;69656;44.498;0.166;2023-08-21T11:54:17;9.67;;;3.50;;
80340;SDS011;69656;44.498;0.166;2023-08-21T11:59:50;4.03;;;2.70;;
80340;SDS011;69656;44.498;0.166;2023-08-21T12:05:21;10.77;;;3.10;;
80340;SDS011;69656;44.498;0.166;2023-08-21T12:10:54;7.40;;;2.73;;
80340;SDS011;69656;44.498;0.166;2023-08-21T12:16:27;3.63;;;2.70;;
80340;SDS011;69656;44.498;0.166;2023-08-21T12:22:00;5.97;;;2.53;;
80340;SDS011;69656;44.498;0.166;2023-08-21T12:27:33;5.00;;;2.83;;
80340;SDS011;69656;44.498;0.166;2023-08-21T12:33:07;3.67;;;2.60;;
80340;SDS011;69656;44.498;0.166;2023-08-21T12:38:40;5.17;;;2.30;;
80340;SDS011;69656;44.498;0.166;2023-08-21T12:44:13;7.50;;;2.67;;
80340;SDS011;69656;44.498;0.166;2023-08-21T12:49:46;3.33;;;2.00;;
80340;SDS011;69656;44.498;0.166;2023-08-21T12:55:20;4.27;;;2.10;;
80340;SDS011;69656;44.498;0.166;2023-08-21T13:00:52;3.60;;;2.20;;
80340;SDS011;69656;44.498;0.166;2023-08-21T13:06:24;2.20;;;2.00;;
80340;SDS011;69656;44.498;0.166;2023-08-21T13:11:57;7.53;;;1.97;;
80340;SDS011;69656;44.498;0.166;2023-08-21T13:17:29;4.60;;;1.93;;
80340;SDS011;69656;44.498;0.166;2023-08-21T13:23:01;2.57;;;2.10;;
80340;SDS011;69656;44.498;0.166;2023-08-21T13:28:33;5.70;;;2.10;;
80340;SDS011;69656;44.498;0.166;2023-08-21T13:34:06;3.53;;;2.10;;
80340;SDS011;69656;44.498;0.166;2023-08-21T13:39:39;7.77;;;2.10;;
80340;SDS011;69656;44.498;0.166;2023-08-21T13:45:13;5.03;;;1.70;;
80340;SDS011;69656;44.498;0.166;2023-08-21T13:50:45;4.73;;;2.33;;
80340;SDS011;69656;44.498;0.166;2023-08-21T13:56:17;4.40;;;1.70;;
80340;SDS011;69656;44.498;0.166;2023-08-21T14:01:49;4.80;;;2.03;;
80340;SDS011;69656;44.498;0.166;2023-08-21T14:07:21;2.87;;;1.90;;
80340;SDS011;69656;44.498;0.166;2023-08-21T14:12:55;6.17;;;2.60;;
80340;SDS011;69656;44.498;0.166;2023-08-21T14:18:28;4.70;;;2.43;;
80340;SDS011;69656;44.498;0.166;2023-08-21T14:24:00;4.53;;;2.03;;
80340;SDS011;69656;44.498;0.166;2023-08-21T14:29:34;3.63;;;1.90;;
80340;SDS011;69656;44.498;0.166;2023-08-21T14:35:08;7.30;;;2.90;;
80340;SDS011;69656;44.498;0.166;2023-08-21T14:40:41;4.07;;;2.20;;
80340;SDS011;69656;44.498;0.166;2023-08-21T14:46:13;2.03;;;1.93;;
80340;SDS011;69656;44.498;0.166;2023-08-21T14:51:44;6.27;;;3.03;;
80340;SDS011;69656;44.498;0.166;2023-08-21T14:57:18;3.77;;;2.20;;
80340;SDS011;69656;44.498;0.166;2023-08-21T15:02:50;3.50;;;2.40;;
80340;SDS011;69656;44.498;0.166;2023-08-21T15:08:23;5.17;;;2.80;;
80340;SDS011;69656;44.498;0.166;2023-08-21T15:13:55;5.70;;;2.67;;
80340;SDS011;69656;44.498;0.166;2023-08-21T15:19:29;2.93;;;2.17;;
80340;SDS011;69656;44.498;0.166;2023-08-21T15:25:02;8.17;;;2.17;;
80340;SDS011;69656;44.498;0.166;2023-08-21T15:30:34;3.37;;;1.80;;
80340;SDS011;69656;44.498;0.166;2023-08-21T15:36:07;8.53;;;2.90;;
80340;SDS011;69656;44.498;0.166;2023-08-21T15:41:39;2.27;;;2.07;;
80340;SDS011;69656;44.498;0.166;2023-08-21T15:47:12;2.87;;;2.30;;
80340;SDS011;69656;44.498;0.166;2023-08-21T15:52:44;6.20;;;2.30;;
80340;SDS011;69656;44.498;0.166;2023-08-21T15:58:17;4.93;;;2.47;;
80340;SDS011;69656;44.498;0.166;2023-08-21T16:03:50;5.80;;;2.40;;
80340;SDS011;69656;44.498;0.166;2023-08-21T16:09:22;3.07;;;2.30;;
80340;SDS011;69656;44.498;0.166;2023-08-21T16:14:56;3.53;;;2.27;;
80340;SDS011;69656;44.498;0.166;2023-08-21T16:20:28;2.93;;;2.20;;
80340;SDS011;69656;44.498;0.166;2023-08-21T16:26:00;2.93;;;1.97;;
80340;SDS011;69656;44.498;0.166;2023-08-21T16:31:33;4.77;;;2.30;;
80340;SDS011;69656;44.498;0.166;2023-08-21T16:37:05;3.63;;;2.27;;
80340;SDS011;69656;44.498;0.166;2023-08-21T16:42:38;6.73;;;2.53;;
80340;SDS011;69656;44.498;0.166;2023-08-21T16:48:10;2.93;;;2.33;;
80340;SDS011;69656;44.498;0.166;2023-08-21T16:53:42;4.40;;;2.10;;
80340;SDS011;69656;44.498;0.166;2023-08-21T16:59:15;6.00;;;2.00;;
80340;SDS011;69656;44.498;0.166;2023-08-21T17:04:48;2.90;;;1.70;;
80340;SDS011;69656;44.498;0.166;2023-08-21T17:10:20;3.23;;;1.97;;
80340;SDS011;69656;44.498;0.166;2023-08-21T17:15:53;2.80;;;2.13;;
80340;SDS011;69656;44.498;0.166;2023-08-21T17:21:26;4.20;;;2.13;;
80340;SDS011;69656;44.498;0.166;2023-08-21T17:26:59;4.07;;;1.80;;
80340;SDS011;69656;44.498;0.166;2023-08-21T17:32:31;2.40;;;1.80;;
80340;SDS011;69656;44.498;0.166;2023-08-21T17:38:04;2.07;;;1.90;;
80340;SDS011;69656;44.498;0.166;2023-08-21T17:43:37;4.93;;;2.07;;
80340;SDS011;69656;44.498;0.166;2023-08-21T17:49:10;3.37;;;1.77;;
80340;SDS011;69656;44.498;0.166;2023-08-21T17:54:43;2.87;;;2.50;;
80340;SDS011;69656;44.498;0.166;2023-08-21T18:00:16;4.07;;;2.00;;
80340;SDS011;69656;44.498;0.166;2023-08-21T18:05:49;2.13;;;1.90;;
80340;SDS011;69656;44.498;0.166;2023-08-21T18:11:22;2.70;;;1.90;;
80340;SDS011;69656;44.498;0.166;2023-08-21T18:22:26;2.90;;;1.80;;
80340;SDS011;69656;44.498;0.166;2023-08-21T18:27:58;2.13;;;1.93;;
80340;SDS011;69656;44.498;0.166;2023-08-21T18:33:30;1.97;;;1.80;;
80340;SDS011;69656;44.498;0.166;2023-08-21T18:39:02;1.80;;;1.70;;
80340;SDS011;69656;44.498;0.166;2023-08-21T18:44:34;3.10;;;2.33;;
80340;SDS011;69656;44.498;0.166;2023-08-21T18:50:05;4.97;;;2.37;;
80340;SDS011;69656;44.498;0.166;2023-08-21T18:55:38;3.20;;;2.57;;
80340;SDS011;69656;44.498;0.166;2023-08-21T19:01:10;3.67;;;2.67;;
80340;SDS011;69656;44.498;0.166;2023-08-21T19:06:42;3.20;;;2.20;;
80340;SDS011;69656;44.498;0.166;2023-08-21T19:12:15;5.60;;;2.77;;
80340;SDS011;69656;44.498;0.166;2023-08-21T19:17:48;5.23;;;2.67;;
80340;SDS011;69656;44.498;0.166;2023-08-21T19:23:21;3.17;;;2.87;;
80340;SDS011;69656;44.498;0.166;2023-08-21T19:28:53;3.07;;;2.37;;
80340;SDS011;69656;44.498;0.166;2023-08-21T19:34:25;5.70;;;2.60;;
80340;SDS011;69656;44.498;0.166;2023-08-21T19:39:57;8.70;;;3.00;;
80340;SDS011;69656;44.498;0.166;2023-08-21T19:45:30;4.50;;;2.77;;
80340;SDS011;69656;44.498;0.166;2023-08-21T19:51:02;4.33;;;2.53;;
80340;SDS011;69656;44.498;0.166;2023-08-21T19:56:35;4.07;;;2.50;;
80340;SDS011;69656;44.498;0.166;2023-08-21T20:02:08;3.97;;;2.30;;
80340;SDS011;69656;44.498;0.166;2023-08-21T20:07:42;15.53;;;2.50;;
80340;SDS011;69656;44.498;0.166;2023-08-21T20:13:14;2.97;;;2.20;;
80340;SDS011;69656;44.498;0.166;2023-08-21T20:18:47;3.67;;;2.53;;
80340;SDS011;69656;44.498;0.166;2023-08-21T20:24:20;3.80;;;2.50;;
80340;SDS011;69656;44.498;0.166;2023-08-21T20:29:52;3.30;;;2.27;;
80340;SDS011;69656;44.498;0.166;2023-08-21T20:35:25;2.10;;;1.97;;
80340;SDS011;69656;44.498;0.166;2023-08-21T20:41:01;2.63;;;2.00;;
80340;SDS011;69656;44.498;0.166;2023-08-21T20:46:31;5.13;;;2.40;;
80340;SDS011;69656;44.498;0.166;2023-08-21T20:52:04;2.40;;;2.17;;
80340;SDS011;69656;44.498;0.166;2023-08-21T20:57:37;3.67;;;2.03;;
80340;SDS011;69656;44.498;0.166;2023-08-21T21:03:08;4.27;;;2.60;;
80340;SDS011;69656;44.498;0.166;2023-08-21T21:08:41;5.13;;;2.43;;
80340;SDS011;69656;44.498;0.166;2023-08-21T21:14:14;2.23;;;1.83;;
80340;SDS011;69656;44.498;0.166;2023-08-21T21:19:48;5.77;;;2.77;;
80340;SDS011;69656;44.498;0.166;2023-08-21T21:25:20;2.20;;;2.00;;
80340;SDS011;69656;44.498;0.166;2023-08-21T21:30:54;3.17;;;2.17;;
80340;SDS011;69656;44.498;0.166;2023-08-21T21:36:25;8.23;;;4.00;;
80340;SDS011;69656;44.498;0.166;2023-08-21T21:41:58;8.17;;;3.70;;
80340;SDS011;69656;44.498;0.166;2023-08-21T21:47:30;7.70;;;2.87;;
80340;SDS011;69656;44.498;0.166;2023-08-21T21:53:03;4.07;;;2.93;;
80340;SDS011;69656;44.498;0.166;2023-08-21T21:58:35;4.20;;;2.67;;
80340;SDS011;69656;44.498;0.166;2023-08-21T22:04:08;3.97;;;2.33;;
80340;SDS011;69656;44.498;0.166;2023-08-21T22:09:42;7.07;;;3.00;;
80340;SDS011;69656;44.498;0.166;2023-08-21T22:15:13;7.07;;;3.37;;
80340;SDS011;69656;44.498;0.166;2023-08-21T22:20:46;3.60;;;2.77;;
80340;SDS011;69656;44.498;0.166;2023-08-21T22:26:18;6.20;;;3.00;;
80340;SDS011;69656;44.498;0.166;2023-08-21T22:31:50;6.20;;;3.30;;
80340;SDS011;69656;44.498;0.166;2023-08-21T22:37:24;4.53;;;3.27;;
80340;SDS011;69656;44.498;0.166;2023-08-21T22:42:57;3.13;;;2.83;;
80340;SDS011;69656;44.498;0.166;2023-08-21T22:48:29;3.40;;;3.10;;
80340;SDS011;69656;44.498;0.166;2023-08-21T22:54:02;6.70;;;3.30;;
80340;SDS011;69656;44.498;0.166;2023-08-21T22:59:34;9.03;;;3.37;;
80340;SDS011;69656;44.498;0.166;2023-08-21T23:05:06;6.47;;;2.80;;
80340;SDS011;69656;44.498;0.166;2023-08-21T23:10:42;4.47;;;2.60;;
80340;SDS011;69656;44.498;0.166;2023-08-21T23:16:11;3.93;;;3.37;;
80340;SDS011;69656;44.498;0.166;2023-08-21T23:21:44;5.07;;;3.80;;
80340;SDS011;69656;44.498;0.166;2023-08-21T23:27:16;7.13;;;4.00;;
80340;SDS011;69656;44.498;0.166;2023-08-21T23:32:49;6.50;;;4.00;;
80340;SDS011;69656;44.498;0.166;2023-08-21T23:38:23;8.70;;;4.47;;
80340;SDS011;69656;44.498;0.166;2023-08-21T23:43:55;5.10;;;4.53;;
80340;SDS011;69656;44.498;0.166;2023-08-21T23:49:29;7.57;;;5.10;;
80340;SDS011;69656;44.498;0.166;2023-08-21T23:55:03;8.13;;;5.00;;
